Time;durP1;ratioP1;P1;durP2;ratioP2;P2;SDS_P1;SDS_P2;PMS_P1;PMS_P2;Temp;Humidity;BMP_temperature;BMP_pressure;BME280_temperature;BME280_humidity;BME280_pressure;Samples;Min_cycle;Max_cycle;Signal;HPM_P1;HPM_P2
2023/09/18 00:02:16;;;;;;;30.60;11.00;;;;;;;15.16;100.00;99047.63;140658;1247;22800;-80
2023/09/18 00:05:17;;;;;;;41.60;12.70;;;;;;;15.15;100.00;99045.53;140230;1247;22345;-83
2023/09/18 00:08:19;;;;;;;14.90;10.00;;;;;;;15.14;100.00;99044.13;140105;1244;22471;-82
2023/09/18 00:11:20;;;;;;;17.20;10.80;;;;;;;15.11;100.00;99042.73;140875;1247;22545;-83
2023/09/18 00:14:21;;;;;;;75.70;15.50;;;;;;;15.11;100.00;99045.20;140202;1248;22663;-82
2023/09/18 00:17:23;;;;;;;70.80;15.10;;;;;;;15.11;100.00;99042.04;140050;1244;22530;-84
2023/09/18 00:20:26;;;;;;;30.30;11.70;;;;;;;15.10;100.00;99043.27;140851;1248;22566;-85
2023/09/18 00:23:28;;;;;;;16.70;10.90;;;;;;;15.09;100.00;99038.89;140166;1247;22362;-85
2023/09/18 00:26:29;;;;;;;12.60;9.60;;;;;;;15.05;100.00;99037.69;140139;1247;22491;-83
2023/09/18 00:29:30;;;;;;;16.50;10.40;;;;;;;15.00;100.00;99034.54;140586;1248;23168;-84
2023/09/18 00:32:31;;;;;;;16.50;10.60;;;;;;;14.99;100.00;99037.34;140524;1248;22981;-83
2023/09/18 00:35:32;;;;;;;19.20;10.60;;;;;;;14.98;100.00;99040.33;139957;1247;22531;-83
2023/09/18 00:38:33;;;;;;;16.00;11.70;;;;;;;14.97;100.00;99037.00;140365;1248;22584;-85
2023/09/18 00:41:34;;;;;;;50.60;13.30;;;;;;;14.96;100.00;99033.50;140598;1248;22420;-83
2023/09/18 00:44:35;;;;;;;463.90;38.20;;;;;;;14.96;100.00;99039.64;140164;1248;22414;-81
2023/09/18 00:47:37;;;;;;;86.50;14.50;;;;;;;14.97;100.00;99041.38;140092;1248;22536;-80
2023/09/18 00:50:39;;;;;;;13.40;10.10;;;;;;;14.93;100.00;99038.25;140841;1248;22413;-81
2023/09/18 00:53:41;;;;;;;13.80;10.60;;;;;;;14.82;100.00;99037.39;140290;1248;22798;-82
2023/09/18 00:56:42;;;;;;;12.00;10.80;;;;;;;14.72;100.00;99036.34;140202;1248;22361;-82
2023/09/18 00:59:43;;;;;;;16.40;9.70;;;;;;;14.68;100.00;99033.70;140607;1248;22499;-82
2023/09/18 01:02:45;;;;;;;15.10;10.20;;;;;;;14.68;100.00;99035.63;140273;1248;22370;-82
2023/09/18 01:05:46;;;;;;;12.80;10.60;;;;;;;14.69;100.00;99035.63;140223;1244;22437;-82
2023/09/18 01:08:47;;;;;;;12.40;10.70;;;;;;;14.66;100.00;99033.17;140443;1247;26038;-84
2023/09/18 01:11:48;;;;;;;70.80;13.70;;;;;;;14.63;100.00;99036.17;140517;1247;22571;-81
2023/09/18 01:14:49;;;;;;;12.30;10.50;;;;;;;14.63;100.00;99036.16;140116;1244;22522;-82
2023/09/18 01:17:50;;;;;;;12.60;10.90;;;;;;;14.63;100.00;99031.78;140218;1247;23061;-83
2023/09/18 01:20:51;;;;;;;39.70;13.20;;;;;;;14.61;100.00;99031.44;140863;1247;22101;-82
2023/09/18 01:23:52;;;;;;;28.30;12.50;;;;;;;14.61;100.00;99027.93;140120;1247;22534;-82
2023/09/18 01:26:54;;;;;;;12.50;10.10;;;;;;;14.63;100.00;99026.01;140180;1247;22526;-83
2023/09/18 01:29:55;;;;;;;12.70;10.20;;;;;;;14.59;100.00;99028.98;140874;1247;22800;-83
2023/09/18 01:32:56;;;;;;;10.70;9.50;;;;;;;14.58;100.00;99028.29;140274;1247;22369;-81
2023/09/18 01:35:57;;;;;;;11.90;9.70;;;;;;;14.58;100.00;99031.80;140170;1247;22351;-83
2023/09/18 01:38:58;;;;;;;13.20;10.60;;;;;;;14.64;100.00;99033.36;140612;1247;22524;-84
2023/09/18 01:42:01;;;;;;;15.10;10.70;;;;;;;14.67;100.00;99031.95;140432;1247;22690;-84
2023/09/18 01:45:02;;;;;;;11.60;10.60;;;;;;;14.72;100.00;99035.27;140237;1247;22396;-83
2023/09/18 01:48:03;;;;;;;12.20;11.00;;;;;;;14.76;100.00;99032.33;140352;1247;22496;-83
2023/09/18 01:51:05;;;;;;;13.30;11.40;;;;;;;14.80;100.00;99031.96;140696;1247;22963;-83
2023/09/18 01:54:06;;;;;;;12.20;10.80;;;;;;;14.82;100.00;99036.86;140160;1247;22567;-84
2023/09/18 01:57:07;;;;;;;12.70;11.50;;;;;;;14.84;100.00;99037.56;140227;1247;22959;-82
2023/09/18 02:00:09;;;;;;;12.90;11.70;;;;;;;14.85;100.00;99036.33;140793;1245;22375;-82
2023/09/18 02:03:10;;;;;;;13.20;11.40;;;;;;;14.88;100.00;99039.13;140143;1247;22989;-83
2023/09/18 02:06:11;;;;;;;13.60;11.90;;;;;;;14.91;100.00;99039.65;140178;1247;23178;-83
2023/09/18 02:09:12;;;;;;;12.50;11.30;;;;;;;14.94;100.00;99034.73;140671;1247;23147;-83
2023/09/18 02:12:17;;;;;;;12.40;10.90;;;;;;;14.96;100.00;99036.83;140327;1247;22720;-85
2023/09/18 02:15:18;;;;;;;14.70;10.80;;;;;;;15.02;100.00;99030.51;140177;1247;22398;-83
2023/09/18 02:18:19;;;;;;;17.50;11.90;;;;;;;15.06;100.00;99028.91;140402;1247;22518;-83
2023/09/18 02:21:20;;;;;;;14.10;11.00;;;;;;;15.12;100.00;99033.10;140524;1247;22351;-84
2023/09/18 02:24:21;;;;;;;28.80;12.90;;;;;;;15.17;100.00;99032.04;139893;1247;22648;-82
2023/09/18 02:27:23;;;;;;;148.70;24.30;;;;;;;15.24;100.00;99032.00;140354;1247;22498;-80
2023/09/18 02:30:25;;;;;;;16.50;10.90;;;;;;;15.31;100.00;99033.38;140394;1247;22402;-81
2023/09/18 02:33:26;;;;;;;18.90;12.90;;;;;;;15.38;100.00;99029.84;140152;1248;22538;-81
2023/09/18 02:36:27;;;;;;;14.40;12.10;;;;;;;15.41;100.00;99027.55;140236;1248;22538;-80
2023/09/18 02:39:28;;;;;;;15.20;12.20;;;;;;;15.41;100.00;99024.91;140690;1248;22496;-82
2023/09/18 02:42:30;;;;;;;13.50;12.20;;;;;;;15.42;100.00;99021.41;140198;1248;22654;-83
2023/09/18 02:45:33;;;;;;;65.30;14.40;;;;;;;15.45;100.00;99023.67;139998;1247;22532;-81
2023/09/18 02:48:34;;;;;;;50.20;16.30;;;;;;;15.50;100.00;99024.70;140163;1248;22551;-82
2023/09/18 02:51:35;;;;;;;15.60;12.90;;;;;;;15.55;100.00;99028.52;140722;1246;22607;-85
2023/09/18 02:54:36;;;;;;;17.40;14.40;;;;;;;15.58;100.00;99030.81;140415;1247;22513;-84
2023/09/18 02:57:40;;;;;;;16.60;14.90;;;;;;;15.65;100.00;99025.38;140383;1246;22373;-84
2023/09/18 03:00:42;;;;;;;16.00;14.10;;;;;;;15.69;100.00;99021.85;140424;1247;22530;-83
2023/09/18 03:03:43;;;;;;;15.50;13.80;;;;;;;15.70;100.00;99021.67;140697;1246;22852;-83
2023/09/18 03:06:44;;;;;;;408.90;50.30;;;;;;;15.72;100.00;99022.35;140261;1246;22394;-83
2023/09/18 03:09:45;;;;;;;36.50;17.10;;;;;;;15.77;100.00;99014.44;140372;1246;22511;-81
2023/09/18 03:12:46;;;;;;;25.90;16.00;;;;;;;15.80;100.00;99014.06;140839;1246;22201;-83
2023/09/18 03:15:47;;;;;;;30.40;15.50;;;;;;;15.82;100.00;99014.58;140318;1246;22429;-83
2023/09/18 03:18:51;;;;;;;24.20;14.90;;;;;;;15.84;100.00;99008.25;140217;1246;24397;-82
2023/09/18 03:21:52;;;;;;;19.10;15.00;;;;;;;15.85;100.00;99009.11;140946;1247;22509;-83
2023/09/18 03:24:53;;;;;;;17.30;15.60;;;;;;;15.85;100.00;99008.58;140143;1246;22527;-81
2023/09/18 03:27:55;;;;;;;17.10;15.60;;;;;;;15.85;100.00;99005.43;140285;1246;22566;-82
2023/09/18 03:30:56;;;;;;;17.60;15.80;;;;;;;15.82;100.00;98997.91;140585;1246;22509;-82
2023/09/18 03:33:57;;;;;;;19.30;17.30;;;;;;;15.79;100.00;98998.09;140404;1246;22535;-82
2023/09/18 03:36:58;;;;;;;19.00;17.30;;;;;;;15.77;100.00;99005.48;140276;1246;22391;-82
2023/09/18 03:39:59;;;;;;;18.40;16.00;;;;;;;15.74;100.00;99004.98;140600;1246;24161;-81
2023/09/18 03:43:00;;;;;;;18.90;17.10;;;;;;;15.72;100.00;99006.05;140570;1247;22546;-82
2023/09/18 03:46:01;;;;;;;22.50;16.60;;;;;;;15.94;100.00;99003.27;140295;1246;22376;-82
2023/09/18 03:49:03;;;;;;;19.00;16.70;;;;;;;15.91;100.00;98998.19;140941;1247;22327;-82
2023/09/18 03:52:04;;;;;;;19.50;17.20;;;;;;;15.83;100.00;98995.27;140923;1246;22331;-81
2023/09/18 03:55:05;;;;;;;21.40;16.60;;;;;;;15.75;100.00;98991.29;140487;1247;22410;-81
2023/09/18 03:58:06;;;;;;;18.20;16.50;;;;;;;15.66;100.00;98988.19;140876;1247;22808;-81
2023/09/18 04:01:07;;;;;;;18.00;16.40;;;;;;;15.59;100.00;98985.20;140912;1247;22192;-81
2023/09/18 04:04:08;;;;;;;18.90;17.00;;;;;;;15.53;100.00;98988.55;140697;1247;22517;-81
2023/09/18 04:07:11;;;;;;;420.20;44.90;;;;;;;15.50;100.00;98986.64;140868;1246;22295;-81
2023/09/18 04:10:18;;;;;;;40.70;19.50;;;;;;;15.47;100.00;98980.52;140886;1247;22303;-82
2023/09/18 04:13:19;;;;;;;24.30;17.30;;;;;;;15.43;100.00;98977.20;140598;1246;22297;-81
2023/09/18 04:16:20;;;;;;;20.10;18.00;;;;;;;15.37;100.00;98980.39;140405;1244;22419;-82
2023/09/18 04:19:21;;;;;;;143.00;26.20;;;;;;;15.35;100.00;98977.25;140590;1247;22518;-81
2023/09/18 04:22:23;;;;;;;46.70;20.00;;;;;;;15.32;100.00;98979.90;140541;1247;22501;-82
2023/09/18 04:25:26;;;;;;;19.60;17.20;;;;;;;15.29;100.00;98984.83;140385;1246;22380;-82
2023/09/18 04:28:27;;;;;;;20.20;18.20;;;;;;;15.26;100.00;98982.38;140454;1247;22542;-83
2023/09/18 04:31:28;;;;;;;19.00;16.80;;;;;;;15.24;100.00;98974.84;140814;1247;22410;-83
2023/09/18 04:34:29;;;;;;;19.70;17.00;;;;;;;15.24;100.00;98972.75;140347;1246;22662;-83
2023/09/18 04:37:30;;;;;;;42.60;18.70;;;;;;;15.23;100.00;98971.70;140315;1247;22539;-82
2023/09/18 04:40:32;;;;;;;19.70;17.80;;;;;;;15.25;100.00;98971.52;140717;1247;25401;-81
2023/09/18 04:43:33;;;;;;;20.60;18.30;;;;;;;15.23;100.00;98968.19;140593;1246;22395;-84
2023/09/18 04:46:35;;;;;;;20.30;18.10;;;;;;;15.22;100.00;98966.45;140609;1243;24984;-82
2023/09/18 04:49:36;;;;;;;26.20;17.00;;;;;;;15.28;100.00;98965.19;140872;1247;22371;-83
2023/09/18 04:52:37;;;;;;;30.20;18.00;;;;;;;15.66;100.00;98960.99;140667;1247;22488;-84
2023/09/18 04:55:38;;;;;;;100.40;30.00;;;;;;;15.65;100.00;98960.65;140954;1247;22317;-84
2023/09/18 04:58:39;;;;;;;36.40;20.40;;;;;;;15.63;100.00;98960.84;140851;1247;25229;-81
2023/09/18 05:01:42;;;;;;;33.40;18.30;;;;;;;15.64;100.00;98955.58;140447;1247;22454;-82
2023/09/18 05:04:43;;;;;;;30.20;17.40;;;;;;;15.68;100.00;98952.21;140528;1247;23087;-81
2023/09/18 05:07:45;;;;;;;23.70;16.20;;;;;;;15.72;100.00;98950.95;140905;1246;22255;-82
2023/09/18 05:10:47;;;;;;;19.50;17.50;;;;;;;15.75;100.00;98951.81;140856;1244;22253;-81
2023/09/18 05:13:49;;;;;;;25.70;16.80;;;;;;;15.78;100.00;98949.51;140855;1246;22306;-82
2023/09/18 05:16:50;;;;;;;19.90;17.80;;;;;;;15.85;100.00;98950.86;140834;1244;22211;-83
2023/09/18 05:19:51;;;;;;;90.60;21.30;;;;;;;15.93;100.00;98949.21;140726;1247;22621;-83
2023/09/18 05:22:53;;;;;;;21.10;18.10;;;;;;;16.04;100.00;98941.94;140838;1246;22140;-83
2023/09/18 05:29:35;;;;;;;32.70;18.30;;;;;;;16.30;100.00;98938.00;140852;1246;22384;-82
2023/09/18 05:32:37;;;;;;;17.80;16.20;;;;;;;16.46;100.00;98939.43;140906;1245;22370;-83
2023/09/18 05:35:38;;;;;;;17.40;15.80;;;;;;;16.64;100.00;98936.64;140859;1246;22346;-82
2023/09/18 05:38:39;;;;;;;18.00;16.10;;;;;;;16.82;100.00;98936.28;140849;1246;22902;-82
2023/09/18 05:42:01;;;;;;;17.70;15.40;;;;;;;16.98;100.00;98938.36;140300;1250;22469;-82
2023/09/18 05:45:04;;;;;;;17.20;14.70;;;;;;;17.12;100.00;98940.47;140345;1243;22574;-83
2023/09/18 05:48:05;;;;;;;19.00;15.70;;;;;;;17.27;100.00;98937.81;140315;1250;22320;-82
2023/09/18 05:51:06;;;;;;;34.30;15.90;;;;;;;17.47;100.00;98938.09;140275;1251;22420;-81
2023/09/18 05:54:08;;;;;;;15.40;13.70;;;;;;;17.64;100.00;98939.96;140173;1251;23082;-81
2023/09/18 05:57:09;;;;;;;14.80;13.40;;;;;;;17.80;100.00;98934.29;140308;1248;22495;-81
2023/09/18 06:00:12;;;;;;;26.00;14.40;;;;;;;17.95;100.00;98927.86;140317;1251;22376;-84
2023/09/18 06:03:14;;;;;;;15.50;13.60;;;;;;;18.07;100.00;98933.31;139859;1251;22417;-84
2023/09/18 06:06:16;;;;;;;18.50;13.40;;;;;;;18.22;100.00;98934.65;140197;1251;22354;-83
2023/09/18 06:09:18;;;;;;;15.00;13.70;;;;;;;18.42;100.00;98927.08;140354;1251;23168;-83
2023/09/18 06:12:19;;;;;;;14.40;12.50;;;;;;;18.60;100.00;98923.58;140011;1251;22420;-82
2023/09/18 06:15:21;;;;;;;14.40;12.40;;;;;;;18.73;100.00;98924.23;140382;1250;22413;-82
2023/09/18 06:18:22;;;;;;;23.70;13.10;;;;;;;18.90;100.00;98924.95;140330;1251;22417;-82
2023/09/18 06:21:23;;;;;;;13.70;12.30;;;;;;;19.10;100.00;98926.13;140369;1251;22813;-84
2023/09/18 06:24:25;;;;;;;17.00;12.80;;;;;;;19.28;100.00;98923.65;140400;1251;22351;-82
2023/09/18 06:27:26;;;;;;;17.00;12.30;;;;;;;19.40;100.00;98918.97;140341;1250;22416;-82
2023/09/18 06:30:28;;;;;;;25.60;13.70;;;;;;;19.53;100.00;98912.86;140376;1251;22493;-83
2023/09/18 06:33:29;;;;;;;13.20;11.40;;;;;;;19.70;100.00;98910.01;140371;1250;22388;-83
2023/09/18 06:36:30;;;;;;;13.30;11.50;;;;;;;19.91;100.00;98911.61;140315;1250;22338;-83
2023/09/18 06:39:32;;;;;;;12.30;11.00;;;;;;;20.08;100.00;98907.14;140316;1250;22260;-83
2023/09/18 06:42:33;;;;;;;38.90;12.70;;;;;;;20.27;100.00;98907.18;140344;1251;22331;-83
2023/09/18 06:45:37;;;;;;;12.50;10.60;;;;;;;20.44;100.00;98906.77;140346;1251;22341;-81
2023/09/18 06:48:38;;;;;;;12.10;10.50;;;;;;;20.57;100.00;98907.27;140339;1251;22329;-81
2023/09/18 06:51:40;;;;;;;26.20;12.30;;;;;;;20.72;100.00;98907.57;140353;1251;22340;-82
2023/09/18 06:54:43;;;;;;;13.90;11.20;;;;;;;20.89;100.00;98907.64;140087;1251;22543;-80
2023/09/18 06:57:48;;;;;;;11.70;10.50;;;;;;;20.99;100.00;98906.82;140206;1251;22256;-82
2023/09/18 07:00:50;;;;;;;14.30;10.80;;;;;;;21.10;100.00;98909.33;140379;1251;22131;-81
2023/09/18 07:03:51;;;;;;;18.10;11.30;;;;;;;21.24;100.00;98911.76;140420;1250;22282;-83
2023/09/18 07:06:53;;;;;;;12.00;10.80;;;;;;;21.43;100.00;98917.55;140243;1250;22390;-83
2023/09/18 07:09:54;;;;;;;14.00;10.10;;;;;;;21.64;100.00;98919.39;140328;1249;22628;-82
2023/09/18 07:12:55;;;;;;;10.50;9.50;;;;;;;21.88;100.00;98915.81;140343;1251;22337;-81
2023/09/18 07:15:56;;;;;;;35.80;13.60;;;;;;;22.09;100.00;98919.56;140309;1250;22922;-82
2023/09/18 07:18:58;;;;;;;19.60;10.70;;;;;;;22.27;100.00;98921.08;139607;1251;22895;-82
2023/09/18 07:21:59;;;;;;;11.80;10.40;;;;;;;22.47;100.00;98913.29;139963;1251;22402;-83
2023/09/18 07:25:00;;;;;;;10.50;9.50;;;;;;;22.62;100.00;98915.26;139918;1251;22600;-82
2023/09/18 07:28:02;;;;;;;31.10;20.20;;;;;;;22.75;100.00;98915.69;140283;1251;22492;-83
2023/09/18 07:31:03;;;;;;;10.90;9.90;;;;;;;22.86;100.00;98910.15;139933;1251;22318;-83
2023/09/18 07:34:04;;;;;;;10.90;9.60;;;;;;;22.96;100.00;98912.29;139908;1251;22496;-82
2023/09/18 07:37:05;;;;;;;11.30;10.00;;;;;;;23.08;100.00;98919.81;140240;1250;182607;-83
2023/09/18 07:40:07;;;;;;;12.00;9.30;;;;;;;23.12;100.00;98925.00;140439;1251;22513;-84
2023/09/18 07:43:08;;;;;;;17.30;10.70;;;;;;;23.16;100.00;98920.05;140128;1251;22392;-85
2023/09/18 07:46:10;;;;;;;89.80;17.80;;;;;;;23.30;100.00;98905.14;140460;1250;22132;-84
2023/09/18 07:49:11;;;;;;;11.90;10.40;;;;;;;23.40;100.00;98904.95;140479;1251;22363;-83
2023/09/18 07:52:12;;;;;;;10.80;9.70;;;;;;;23.51;100.00;98902.92;140322;1251;22500;-84
2023/09/18 07:55:14;;;;;;;19.30;10.90;;;;;;;23.60;100.00;98900.27;139803;1250;22522;-84
2023/09/18 07:58:16;;;;;;;12.40;9.50;;;;;;;23.71;100.00;98901.06;140080;1251;22415;-84
2023/09/18 08:01:18;;;;;;;9.30;8.50;;;;;;;23.87;100.00;98899.34;140441;1251;22381;-85
2023/09/18 08:04:19;;;;;;;11.00;9.40;;;;;;;24.02;100.00;98895.53;140338;1251;22523;-86
2023/09/18 08:07:23;;;;;;;29.90;12.10;;;;;;;24.16;100.00;98897.95;140017;1247;22474;-84
2023/09/18 08:10:25;;;;;;;10.70;9.70;;;;;;;24.32;100.00;98894.67;140289;1251;22326;-84
2023/09/18 08:13:26;;;;;;;48.00;12.20;;;;;;;24.49;100.00;98889.10;140276;1250;22480;-85
2023/09/18 08:16:28;;;;;;;11.10;9.00;;;;;;;24.67;100.00;98889.23;140301;1250;22444;-85
2023/09/18 08:19:29;;;;;;;12.00;9.20;;;;;;;24.82;100.00;98891.18;140152;1251;22575;-85
2023/09/18 08:22:30;;;;;;;9.40;8.60;;;;;;;24.96;100.00;98884.34;140326;1246;22358;-84
2023/09/18 08:25:32;;;;;;;9.70;8.90;;;;;;;25.09;100.00;98880.73;140237;1250;22415;-80
2023/09/18 08:28:35;;;;;;;78.60;14.90;;;;;;;25.21;100.00;98882.15;140343;1251;22284;-87
2023/09/18 08:31:39;;;;;;;35.00;10.70;;;;;;;25.32;100.00;98879.31;140280;1251;22447;-84
2023/09/18 08:34:40;;;;;;;10.80;9.10;;;;;;;25.46;100.00;98875.79;140304;1250;22421;-84
2023/09/18 08:37:41;;;;;;;28.90;10.20;;;;;;;25.47;100.00;98874.70;140358;1251;22387;-83
2023/09/18 08:40:42;;;;;;;45.30;12.60;;;;;;;25.50;100.00;98872.07;140257;1251;22448;-84
2023/09/18 08:43:44;;;;;;;16.30;9.50;;;;;;;25.58;100.00;98864.52;140332;1250;22404;-86
2023/09/18 08:46:47;;;;;;;11.50;9.30;;;;;;;25.72;100.00;98864.21;140314;1250;22390;-85
2023/09/18 08:49:48;;;;;;;20.80;11.30;;;;;;;25.87;100.00;98867.02;140343;1251;22030;-85
2023/09/18 08:52:49;;;;;;;15.90;10.60;;;;;;;26.01;86.14;98862.97;140348;1247;22211;-84
2023/09/18 08:55:51;;;;;;;12.30;10.20;;;;;;;26.10;65.19;98854.31;140321;1250;22371;-85
2023/09/18 08:58:56;;;;;;;12.50;9.20;;;;;;;26.20;63.96;98847.55;140337;1251;22323;-85
2023/09/18 09:01:58;;;;;;;10.30;9.30;;;;;;;26.25;63.12;98845.69;140315;1248;22429;-85
2023/09/18 09:04:59;;;;;;;11.20;9.80;;;;;;;26.31;63.30;98845.38;140090;1251;22430;-85
2023/09/18 09:08:01;;;;;;;60.20;13.50;;;;;;;26.38;62.79;98842.40;140337;1251;22798;-85
2023/09/18 09:11:02;;;;;;;12.80;10.40;;;;;;;26.44;62.80;98839.17;140346;1251;22324;-87
2023/09/18 09:14:03;;;;;;;9.50;8.50;;;;;;;26.51;62.88;98838.98;140033;1251;22821;-84
2023/09/18 09:17:06;;;;;;;36.70;11.70;;;;;;;26.63;62.81;98836.75;140171;1250;22583;-85
2023/09/18 09:20:07;;;;;;;21.70;9.70;;;;;;;26.68;61.47;98835.42;140252;1251;22428;-84
2023/09/18 09:23:08;;;;;;;14.60;9.10;;;;;;;26.70;60.42;98834.41;139999;1251;22509;-83
2023/09/18 09:26:10;;;;;;;19.30;10.40;;;;;;;26.75;59.30;98828.95;140110;1250;22542;-83
2023/09/18 09:29:13;;;;;;;10.10;8.50;;;;;;;26.90;59.32;98831.21;140203;1250;22464;-83
2023/09/18 09:32:14;;;;;;;;;;;;;;;27.03;58.89;98828.41;139981;1250;22499;-83
2023/09/18 09:35:16;;;;;;;9.30;8.40;;;;;;;27.07;58.27;98826.02;140469;1247;23013;-83
2023/09/18 09:38:19;;;;;;;10.30;9.00;;;;;;;27.13;58.29;98824.98;140900;1247;23065;-84
2023/09/18 09:41:21;;;;;;;11.60;8.50;;;;;;;27.19;58.32;98818.91;140857;1247;22304;-84
2023/09/18 09:44:25;;;;;;;35.20;11.40;;;;;;;27.31;56.83;98815.38;140862;1237;22282;-85
2023/09/18 09:47:27;;;;;;;10.70;8.30;;;;;;;27.39;56.95;98814.90;140878;1247;22228;-84
2023/09/18 09:50:28;;;;;;;16.10;8.60;;;;;;;27.45;56.00;98813.66;140902;1247;22106;-82
2023/09/18 09:53:29;;;;;;;13.50;7.80;;;;;;;27.60;55.66;98812.63;140477;1241;22439;-82
2023/09/18 09:56:31;;;;;;;51.10;12.50;;;;;;;27.70;54.31;98811.76;140887;1247;22264;-83
2023/09/18 09:59:35;;;;;;;27.10;9.20;;;;;;;27.78;53.97;98806.10;140875;1247;22067;-84
2023/09/18 10:02:36;;;;;;;31.80;8.80;;;;;;;27.87;53.14;98810.73;140656;1247;22391;-83
2023/09/18 10:05:37;;;;;;;26.30;9.90;;;;;;;27.85;51.31;98809.27;140837;1247;22412;-83
2023/09/18 10:08:41;;;;;;;22.00;11.70;;;;;;;27.79;51.49;98808.91;140829;1247;22326;-82
2023/09/18 10:11:45;;;;;;;8.80;7.00;;;;;;;27.73;51.06;98800.84;140888;1246;22298;-84
2023/09/18 10:14:48;;;;;;;;;;;;;;;27.76;51.46;98795.83;140907;1247;22335;-83
2023/09/18 10:17:49;;;;;;;15.10;7.20;;;;;;;27.84;51.06;98791.58;140907;1244;22197;-83
2023/09/18 10:20:50;;;;;;;7.40;6.10;;;;;;;27.95;50.48;98785.09;140883;1247;22206;-83
2023/09/18 10:23:52;;;;;;;7.00;6.20;;;;;;;28.08;50.70;98781.08;140637;1247;22448;-83
2023/09/18 10:26:58;;;;;;;8.80;5.60;;;;;;;28.18;49.42;98774.50;140859;1247;22242;-84
2023/09/18 10:30:05;;;;;;;125.10;16.20;;;;;;;28.27;49.17;98768.81;140558;1247;22901;-82
2023/09/18 10:33:07;;;;;;;6.70;5.70;;;;;;;28.36;48.44;98762.39;140872;1247;22359;-82
2023/09/18 10:36:08;;;;;;;7.70;6.10;;;;;;;28.36;47.98;98758.22;140690;1247;24976;-82
2023/09/18 10:39:12;;;;;;;13.40;5.60;;;;;;;28.45;48.42;98759.27;140509;1247;22502;-83
2023/09/18 10:42:14;;;;;;;7.50;6.10;;;;;;;28.63;47.19;98753.91;140427;1247;22463;-83
2023/09/18 10:45:17;;;;;;;8.10;6.10;;;;;;;28.73;46.35;98752.19;140560;1247;22583;-82
2023/09/18 10:48:20;;;;;;;25.60;7.80;;;;;;;28.69;46.31;98748.51;140911;1247;23013;-85
2023/09/18 10:51:21;;;;;;;9.30;6.10;;;;;;;28.74;46.04;98742.30;140615;1247;22208;-84
2023/09/18 10:54:22;;;;;;;29.50;7.40;;;;;;;28.78;45.39;98735.56;140889;1247;22375;-84
2023/09/18 10:57:23;;;;;;;9.20;7.00;;;;;;;28.85;45.79;98734.23;140920;1247;22273;-83
2023/09/18 11:00:25;;;;;;;6.80;6.20;;;;;;;28.99;44.32;98734.02;140463;1247;22467;-84
2023/09/18 11:03:26;;;;;;;9.20;6.60;;;;;;;28.84;43.59;98735.38;140486;1247;22546;-85
2023/09/18 11:06:28;;;;;;;9.60;7.70;;;;;;;28.88;43.68;98731.18;140856;1247;22419;-84
2023/09/18 11:09:29;;;;;;;7.30;6.60;;;;;;;28.95;43.76;98729.12;140487;1241;22384;-85
2023/09/18 11:12:31;;;;;;;8.00;6.80;;;;;;;29.09;42.66;98727.08;140834;1247;22406;-85
2023/09/18 11:15:35;;;;;;;32.10;10.10;;;;;;;28.99;43.53;98728.84;140627;1247;22557;-85
2023/09/18 11:18:39;;;;;;;26.70;7.70;;;;;;;28.95;43.64;98725.89;140032;1247;22582;-85
2023/09/18 11:21:42;;;;;;;15.70;6.90;;;;;;;29.08;43.90;98717.86;140524;1247;22502;-85
2023/09/18 11:24:44;;;;;;;7.00;6.40;;;;;;;29.21;43.78;98714.67;140656;1247;22437;-81
2023/09/18 11:27:45;;;;;;;14.40;7.40;;;;;;;29.26;43.29;98713.26;140879;1247;22351;-84
2023/09/18 11:30:46;;;;;;;56.00;9.90;;;;;;;29.32;42.72;98707.48;140742;1247;24129;-86
2023/09/18 11:33:47;;;;;;;10.50;7.60;;;;;;;29.38;42.83;98708.91;140703;1247;22410;-84
2023/09/18 11:36:48;;;;;;;8.70;7.50;;;;;;;29.37;42.68;98705.75;140879;1247;22224;-86
2023/09/18 11:39:49;;;;;;;14.40;7.70;;;;;;;29.49;43.26;98704.79;140879;1246;22335;-84
2023/09/18 11:42:51;;;;;;;23.40;8.30;;;;;;;29.68;42.77;98704.75;140859;1247;22892;-85
2023/09/18 11:45:59;;;;;;;11.40;7.00;;;;;;;29.70;41.73;98705.16;140685;1247;22525;-86
2023/09/18 11:49:10;;;;;;;19.50;8.00;;;;;;;29.40;42.22;98696.95;140827;1247;22276;-86
2023/09/18 11:52:12;;;;;;;13.60;7.20;;;;;;;29.26;42.80;98696.05;140830;1247;22333;-84
2023/09/18 11:55:17;;;;;;;7.50;6.90;;;;;;;29.27;42.95;98699.95;140481;1247;22552;-86
2023/09/18 11:58:22;;;;;;;8.70;7.80;;;;;;;29.20;43.40;98695.23;140645;1244;22394;-85
2023/09/18 12:01:24;;;;;;;11.80;7.60;;;;;;;29.17;43.50;98692.89;140488;1246;22517;-85
2023/09/18 12:04:29;;;;;;;7.80;7.10;;;;;;;29.37;43.10;98690.18;140874;1247;22392;-85
2023/09/18 12:07:30;;;;;;;10.40;7.30;;;;;;;29.55;43.35;98689.18;140826;1247;22351;-83
2023/09/18 12:10:32;;;;;;;14.90;7.70;;;;;;;29.65;43.43;98690.83;140815;1246;22811;-83
2023/09/18 12:13:33;;;;;;;46.10;9.90;;;;;;;29.60;43.57;98683.99;140823;1247;22804;-86
2023/09/18 12:16:35;;;;;;;8.20;7.40;;;;;;;29.53;44.01;98679.59;140790;1246;22320;-81
2023/09/18 12:19:36;;;;;;;16.40;8.10;;;;;;;29.52;44.39;98673.77;140847;1247;22311;-85
2023/09/18 12:22:38;;;;;;;25.80;9.60;;;;;;;29.46;44.67;98670.55;140838;1246;22230;-85
2023/09/18 12:25:39;;;;;;;10.70;6.90;;;;;;;29.40;44.08;98663.95;140865;1247;22783;-86
2023/09/18 12:28:42;;;;;;;;;;;;;;;29.27;43.61;98665.70;140813;1246;22305;-84
2023/09/18 12:31:45;;;;;;;8.40;7.60;;;;;;;29.16;44.90;98664.67;140783;1247;22111;-83
2023/09/18 12:34:46;;;;;;;40.40;10.00;;;;;;;29.00;45.30;98660.16;140783;1246;22346;-82
2023/09/18 12:37:48;;;;;;;15.00;8.60;;;;;;;28.82;45.41;98655.66;140734;1246;22277;-82
2023/09/18 12:40:49;;;;;;;8.70;7.80;;;;;;;28.67;45.45;98642.64;140799;1247;22312;-82
2023/09/18 12:43:50;;;;;;;9.10;8.20;;;;;;;28.67;44.24;98649.64;140809;1246;22281;-78
2023/09/18 12:46:52;;;;;;;16.80;9.00;;;;;;;28.73;43.56;98642.60;140858;1247;22274;-78
2023/09/18 12:49:53;;;;;;;9.10;8.30;;;;;;;28.86;44.06;98640.17;140795;1247;22415;-77
2023/09/18 12:52:54;;;;;;;9.50;7.80;;;;;;;28.77;43.96;98637.15;140799;1246;22349;-78
2023/09/18 12:55:55;;;;;;;9.40;8.40;;;;;;;28.52;44.26;98632.52;140836;1243;22320;-78
2023/09/18 12:58:57;;;;;;;9.30;8.50;;;;;;;28.38;44.77;98629.48;140853;1246;22259;-78
2023/09/18 13:01:58;;;;;;;18.50;9.30;;;;;;;28.47;44.35;98621.70;140863;1240;22355;-83
2023/09/18 13:04:59;;;;;;;12.00;8.60;;;;;;;28.62;43.72;98614.13;140887;1246;22204;-83
2023/09/18 13:08:00;;;;;;;20.30;8.30;;;;;;;28.65;43.25;98606.45;140894;1243;22274;-83
2023/09/18 13:11:04;;;;;;;14.70;8.70;;;;;;;28.77;43.56;98604.20;140865;1247;22303;-82
2023/09/18 13:14:05;;;;;;;8.60;7.80;;;;;;;28.94;43.69;98602.70;140855;1247;22307;-83
2023/09/18 13:17:06;;;;;;;8.90;8.00;;;;;;;29.16;43.48;98595.70;140906;1247;22456;-83
2023/09/18 13:20:09;;;;;;;15.20;8.30;;;;;;;29.31;43.18;98594.98;140878;1247;22323;-83
2023/09/18 13:23:11;;;;;;;13.90;8.00;;;;;;;29.37;41.69;98597.13;140764;1246;22116;-83
2023/09/18 13:26:12;;;;;;;8.90;8.00;;;;;;;29.25;41.27;98595.23;140778;1246;22321;-83
2023/09/18 13:29:13;;;;;;;9.70;8.40;;;;;;;29.06;42.30;98592.23;140816;1247;22743;-84
2023/09/18 13:32:14;;;;;;;19.20;9.10;;;;;;;29.01;42.76;98588.98;140802;1246;22503;-83
2023/09/18 13:35:16;;;;;;;18.20;9.10;;;;;;;29.14;41.49;98580.58;140844;1247;22239;-82
2023/09/18 13:38:17;;;;;;;10.80;8.40;;;;;;;29.17;41.47;98579.46;140844;1246;22259;-83
2023/09/18 13:41:18;;;;;;;502.80;43.30;;;;;;;29.06;41.47;98573.10;140934;1246;22298;-83
2023/09/18 13:44:20;;;;;;;11.40;8.80;;;;;;;28.97;41.50;98573.36;140918;1247;22389;-82
2023/09/18 13:47:21;;;;;;;17.80;8.20;;;;;;;28.93;41.73;98568.42;140477;1246;22377;-81
2023/09/18 13:50:23;;;;;;;10.00;8.50;;;;;;;28.96;41.27;98571.44;140923;1247;22256;-82